Time;durP1;ratioP1;P1;durP2;ratioP2;P2;SDS_P1;SDS_P2;PMS_P1;PMS_P2;Temp;Humidity;BMP_temperature;BMP_pressure;BME280_temperature;BME280_humidity;BME280_pressure;Samples;Min_cycle;Max_cycle;Signal;HPM_P1;HPM_P2
2024/01/29 00:00:30;;;;;;;1.30;1.20;;;14.30;64.60;;;;;;4933835;29;20240;-7
2024/01/29 00:02:59;;;;;;;2.17;1.30;;;14.30;64.40;;;;;;4933634;29;20207;-7
2024/01/29 00:05:34;;;;;;;2.17;1.43;;;14.20;64.30;;;;;;4934177;29;20382;-7
2024/01/29 00:11:21;;;;;;;2.37;1.37;;;14.20;64.30;;;;;;5023931;28;20272;-7
2024/01/29 00:14:37;;;;;;;88.43;81.97;;;14.20;64.30;;;;;;5013779;28;20465;-6
2024/01/29 00:17:30;;;;;;;188.47;175.03;;;14.20;64.20;;;;;;4985273;28;20215;-7
2024/01/29 00:20:23;;;;;;;1.57;1.30;;;14.20;64.00;;;;;;5037516;28;20182;-7
2024/01/29 00:23:19;;;;;;;1.20;1.10;;;14.20;64.30;;;;;;5051794;28;20228;-7
2024/01/29 00:26:06;;;;;;;1.50;1.30;;;14.20;64.30;;;;;;5036076;28;20188;-6
2024/01/29 00:28:41;;;;;;;1.50;1.40;;;14.20;64.20;;;;;;5037819;28;20475;-7
2024/01/29 00:34:31;;;;;;;1.80;1.30;;;14.20;63.80;;;;;;5053979;28;20318;-6
2024/01/29 00:37:09;;;;;;;1.73;1.30;;;14.20;63.70;;;;;;5053825;28;20171;-7
2024/01/29 00:39:46;;;;;;;1.50;1.27;;;14.20;63.80;;;;;;5074349;28;20278;-7
2024/01/29 00:42:43;;;;;;;1.90;1.37;;;14.10;63.30;;;;;;5043502;28;20214;-7
2024/01/29 00:45:35;;;;;;;2.20;1.50;;;14.10;63.20;;;;;;5060719;28;20266;-7
2024/01/29 00:48:06;;;;;;;1.47;1.20;;;14.10;63.00;;;;;;5067488;28;20199;-6
2024/01/29 00:51:19;;;;;;;1.37;1.27;;;14.10;62.70;;;;;;5075844;28;20810;-6
2024/01/29 00:53:54;;;;;;;1.27;1.17;;;14.10;62.50;;;;;;5075915;28;20322;-7
2024/01/29 00:57:07;;;;;;;2.17;1.43;;;14.00;62.50;;;;;;5075991;28;20187;-7
2024/01/29 00:59:55;;;;;;;2.03;1.50;;;14.10;62.20;;;;;;5076143;28;20303;-6
2024/01/29 01:02:43;;;;;;;1.90;1.30;;;14.10;62.50;;;;;;5075567;28;20178;-8
2024/01/29 01:05:42;;;;;;;3.07;1.50;;;14.10;62.20;;;;;;5035755;28;20793;-6
2024/01/29 01:08:52;;;;;;;1.43;1.30;;;14.10;62.20;;;;;;5024297;28;20197;-7
2024/01/29 01:12:11;;;;;;;1.50;1.40;;;14.00;62.20;;;;;;5009405;28;20488;-7
2024/01/29 01:15:01;;;;;;;1.97;1.40;;;14.00;62.10;;;;;;4937300;29;20688;-6
2024/01/29 01:17:36;;;;;;;1.60;1.30;;;14.00;61.40;;;;;;4937409;29;20222;-8
2024/01/29 01:20:32;;;;;;;1.80;1.37;;;14.00;62.00;;;;;;4935712;29;20467;-6
2024/01/29 01:23:37;;;;;;;1.30;1.20;;;14.00;61.90;;;;;;4936086;29;20182;-6
2024/01/29 01:26:36;;;;;;;2.63;1.50;;;14.00;61.70;;;;;;4921957;29;20190;-6
2024/01/29 01:29:20;;;;;;;1.30;1.20;;;14.00;61.60;;;;;;4937357;29;20185;-7
2024/01/29 01:35:26;;;;;;;1.60;1.10;;;14.00;61.90;;;;;;4899635;29;20480;-7
2024/01/29 01:41:24;;;;;;;1.43;1.30;;;13.90;61.60;;;;;;4935479;29;20516;-8
2024/01/29 01:44:42;;;;;;;1.83;1.30;;;13.90;61.60;;;;;;4920031;29;20198;-7
2024/01/29 01:50:41;;;;;;;1.47;1.37;;;13.90;61.20;;;;;;4943559;28;20243;-7
2024/01/29 01:53:15;;;;;;;1.47;1.20;;;13.90;61.20;;;;;;5028104;28;20570;-8
2024/01/29 01:56:15;;;;;;;1.77;1.37;;;13.90;61.40;;;;;;5014423;28;20276;-7
2024/01/29 02:05:45;;;;;;;1.40;1.30;;;13.90;61.50;;;;;;5072917;28;20196;-7
2024/01/29 02:08:30;;;;;;;1.43;1.30;;;13.90;61.40;;;;;;4977724;28;20264;-6
2024/01/29 02:11:04;;;;;;;1.40;1.17;;;13.90;61.70;;;;;;4990732;28;20563;-11
2024/01/29 02:13:51;;;;;;;1.73;1.60;;;13.90;61.60;;;;;;5049380;28;20477;-7
2024/01/29 02:16:47;;;;;;;1.60;1.20;;;13.90;61.50;;;;;;5071301;28;20173;-6
2024/01/29 02:19:23;;;;;;;1.23;1.13;;;13.90;61.60;;;;;;5071686;28;20214;-7
2024/01/29 02:22:30;;;;;;;1.47;1.23;;;13.90;61.60;;;;;;5071333;28;20171;-7
2024/01/29 02:24:58;;;;;;;1.73;1.30;;;13.90;61.80;;;;;;5071682;28;20594;-6
2024/01/29 02:30:59;;;;;;;1.20;1.10;;;13.80;61.90;;;;;;5029285;28;20613;-5
2024/01/29 02:33:40;;;;;;;1.20;1.10;;;13.90;62.20;;;;;;5029998;28;20182;-7
2024/01/29 02:36:30;;;;;;;2.00;1.33;;;13.80;62.20;;;;;;5030341;28;20590;-6
2024/01/29 02:42:21;;;;;;;1.40;1.23;;;13.80;62.40;;;;;;5032061;28;20294;-8
2024/01/29 02:45:14;;;;;;;1.40;1.30;;;13.90;62.50;;;;;;4935021;29;20454;-8
2024/01/29 02:50:53;;;;;;;1.47;1.30;;;13.90;62.70;;;;;;4935836;29;20227;-7
2024/01/29 02:53:27;;;;;;;1.47;1.37;;;13.90;62.70;;;;;;4935841;29;20186;-7
2024/01/29 02:59:41;;;;;;;1.53;1.43;;;13.80;62.60;;;;;;4933791;29;20317;-5
2024/01/29 03:02:13;;;;;;;1.63;1.40;;;13.80;62.60;;;;;;4940642;29;20505;-7
2024/01/29 03:06:36;;;;;;;1.60;1.30;;;13.80;62.60;;;;;;4953365;29;20350;-7
2024/01/29 03:11:54;;;;;;;1.30;1.10;;;13.80;62.70;;;;;;4893060;29;20214;-7
2024/01/29 03:14:51;;;;;;;1.30;1.20;;;13.80;62.60;;;;;;4881726;29;20298;-6
2024/01/29 03:20:41;;;;;;;2.07;1.40;;;13.80;62.60;;;;;;4954790;29;20191;-6
2024/01/29 03:23:10;;;;;;;1.30;1.20;;;13.80;62.70;;;;;;4953741;29;20577;-8
2024/01/29 03:26:03;;;;;;;1.60;1.37;;;13.80;62.70;;;;;;4966107;28;20188;-7
2024/01/29 03:29:13;;;;;;;1.40;1.30;;;13.80;62.80;;;;;;4974720;28;20740;-6
2024/01/29 03:35:13;;;;;;;2.83;1.40;;;13.80;62.90;;;;;;5014346;28;20215;-8
2024/01/29 03:38:02;;;;;;;1.40;1.30;;;13.80;62.90;;;;;;5013877;28;20456;-5
2024/01/29 03:40:31;;;;;;;1.40;1.27;;;13.80;62.90;;;;;;4988094;28;20448;-6
2024/01/29 03:43:24;;;;;;;1.40;1.20;;;13.80;62.90;;;;;;5010326;28;20443;-8
2024/01/29 03:49:17;;;;;;;1.20;1.10;;;13.80;63.00;;;;;;4973101;28;20228;-6
2024/01/29 03:59:13;;;;;;;1.33;1.20;;;13.80;63.00;;;;;;4974393;28;20291;-7
2024/01/29 04:02:09;;;;;;;1.73;1.50;;;13.80;63.00;;;;;;4934883;29;20187;-7
2024/01/29 04:04:35;;;;;;;1.67;1.40;;;13.80;62.90;;;;;;4935051;29;20264;-8
2024/01/29 04:07:37;;;;;;;1.67;1.30;;;13.80;63.00;;;;;;4934788;29;20183;-6
2024/01/29 04:10:51;;;;;;;1.30;1.20;;;13.80;63.00;;;;;;4933777;29;20172;-7
2024/01/29 04:16:25;;;;;;;1.23;1.13;;;13.70;63.10;;;;;;4933557;29;20176;-6
2024/01/29 04:19:26;;;;;;;1.40;1.30;;;13.80;63.20;;;;;;4944818;28;20503;-7
2024/01/29 04:22:25;;;;;;;1.53;1.30;;;13.80;63.20;;;;;;4990584;28;20178;-7
2024/01/29 04:24:54;;;;;;;1.73;1.30;;;13.80;63.30;;;;;;4973803;28;20205;-6
2024/01/29 04:27:46;;;;;;;10.20;9.67;;;13.70;63.20;;;;;;4991329;28;20527;-7
2024/01/29 04:30:15;;;;;;;1.70;1.50;;;13.70;63.30;;;;;;4991619;28;20185;-6
2024/01/29 04:32:46;;;;;;;1.20;1.10;;;13.70;63.40;;;;;;4992258;28;20186;-7
2024/01/29 04:35:30;;;;;;;2.53;2.40;;;13.80;63.50;;;;;;4992195;28;20213;-7
2024/01/29 04:44:25;;;;;;;1.70;1.30;;;13.80;63.60;;;;;;5010762;28;20188;-7
2024/01/29 04:47:03;;;;;;;1.77;1.50;;;13.80;63.80;;;;;;4993429;28;20188;-8
2024/01/29 04:49:29;;;;;;;1.23;1.13;;;13.70;63.70;;;;;;5010607;28;20193;-7
2024/01/29 04:52:07;;;;;;;1.57;1.37;;;13.70;63.90;;;;;;5028457;28;20200;-7
2024/01/29 04:54:36;;;;;;;1.50;1.20;;;13.70;64.00;;;;;;5051703;28;20264;-6
2024/01/29 04:57:22;;;;;;;1.80;1.23;;;13.70;64.70;;;;;;5051600;28;20271;-8
2024/01/29 05:00:05;;;;;;;1.40;1.30;;;13.70;64.20;;;;;;5051699;28;20310;-7
2024/01/29 05:03:12;;;;;;;15.47;14.03;;;13.70;64.20;;;;;;5052060;28;20177;-7
2024/01/29 05:05:59;;;;;;;1.30;1.20;;;13.70;64.40;;;;;;5052707;28;20172;-7
2024/01/29 05:09:02;;;;;;;1.40;1.27;;;13.70;64.30;;;;;;5052087;28;20248;-7
2024/01/29 05:15:11;;;;;;;1.43;1.30;;;13.70;64.50;;;;;;5049516;28;20236;-7
2024/01/29 05:20:49;;;;;;;1.20;1.10;;;13.70;64.90;;;;;;5054437;28;20284;-7
2024/01/29 05:26:10;;;;;;;1.53;1.43;;;13.70;65.00;;;;;;5072341;28;20300;-7
2024/01/29 05:29:04;;;;;;;1.50;1.40;;;13.70;65.00;;;;;;5071892;28;20283;-7
2024/01/29 05:31:29;;;;;;;3.37;1.40;;;13.70;65.20;;;;;;5071938;28;20168;-6
2024/01/29 05:34:05;;;;;;;1.40;1.27;;;13.70;65.20;;;;;;5074301;28;20263;-7
2024/01/29 05:36:30;;;;;;;1.60;1.20;;;13.70;65.30;;;;;;5074066;28;20221;-7
2024/01/29 05:39:01;;;;;;;1.53;1.30;;;13.70;65.20;;;;;;5074215;28;20200;-7
2024/01/29 05:41:33;;;;;;;1.60;1.30;;;13.70;65.30;;;;;;5074463;28;20202;-7
2024/01/29 05:44:31;;;;;;;2.07;1.37;;;13.70;65.40;;;;;;5057701;28;20180;-5
2024/01/29 05:47:05;;;;;;;1.97;1.37;;;13.70;65.40;;;;;;5039494;28;20245;-8
2024/01/29 05:49:40;;;;;;;1.53;1.33;;;13.70;65.50;;;;;;5058036;28;20180;-7
2024/01/29 05:52:47;;;;;;;4.17;3.57;;;13.70;65.50;;;;;;5031448;28;20180;-7
2024/01/29 05:58:19;;;;;;;1.73;1.40;;;13.70;65.60;;;;;;4926565;29;20238;-7
2024/01/29 06:01:00;;;;;;;1.40;1.30;;;13.70;66.30;;;;;;4952023;29;20427;-6
2024/01/29 06:03:32;;;;;;;1.70;1.37;;;13.70;65.60;;;;;;4952859;29;20188;-7
2024/01/29 06:06:06;;;;;;;4.70;2.70;;;13.70;65.50;;;;;;5011015;28;20183;-7
2024/01/29 06:08:34;;;;;;;1.40;1.30;;;13.70;65.80;;;;;;5012470;28;20212;-7
2024/01/29 06:14:15;;;;;;;1.80;1.57;;;13.70;65.70;;;;;;5018565;28;20608;-7
2024/01/29 06:16:50;;;;;;;1.40;1.30;;;13.70;66.20;;;;;;4989983;28;20584;-7
2024/01/29 06:19:21;;;;;;;1.67;1.30;;;13.70;66.60;;;;;;5030144;28;20214;-7
2024/01/29 06:21:53;;;;;;;1.53;1.43;;;13.70;67.40;;;;;;5028752;28;20171;-7
2024/01/29 06:24:44;;;;;;;1.73;1.40;;;13.70;67.80;;;;;;5071041;28;20200;-7
2024/01/29 06:27:16;;;;;;;3.67;1.30;;;13.70;68.50;;;;;;5060798;28;20252;-6
2024/01/29 06:29:42;;;;;;;2.03;1.33;;;13.70;69.40;;;;;;5051464;28;20557;-7
2024/01/29 06:32:16;;;;;;;1.33;1.23;;;13.70;69.80;;;;;;5070965;28;20184;-8
2024/01/29 06:34:56;;;;;;;1.70;1.20;;;13.80;70.10;;;;;;5053280;28;20572;-6
2024/01/29 06:37:37;;;;;;;1.87;1.50;;;13.80;69.90;;;;;;5071347;28;20452;-6
2024/01/29 06:40:18;;;;;;;3.20;1.57;;;13.80;70.10;;;;;;5070070;28;20244;-7
2024/01/29 06:42:44;;;;;;;4.40;1.83;;;13.80;70.30;;;;;;5068180;28;20515;-7
2024/01/29 06:45:18;;;;;;;2.73;1.90;;;13.80;70.30;;;;;;5051459;28;20637;-6
2024/01/29 06:47:44;;;;;;;1.80;1.50;;;13.80;70.20;;;;;;5067525;28;20312;-7
2024/01/29 06:50:12;;;;;;;3.63;1.77;;;13.80;70.20;;;;;;5068254;28;20319;-7
2024/01/29 06:52:44;;;;;;;2.87;1.70;;;13.80;70.10;;;;;;5068490;28;20647;-7
2024/01/29 06:55:23;;;;;;;6.07;1.90;;;13.80;70.30;;;;;;5067742;28;20582;-7
2024/01/29 06:57:51;;;;;;;9.90;2.20;;;13.80;70.40;;;;;;5065999;28;20199;-7
2024/01/29 07:00:23;;;;;;;8.77;1.80;;;13.80;70.50;;;;;;5066649;28;20183;-7
2024/01/29 07:02:54;;;;;;;8.13;2.00;;;13.80;70.50;;;;;;5049054;28;20673;-7
2024/01/29 07:05:22;;;;;;;7.00;3.03;;;13.90;70.70;;;;;;5050083;28;20191;-7
2024/01/29 07:07:48;;;;;;;9.30;8.40;;;13.80;70.80;;;;;;5067888;28;20182;-7
2024/01/29 07:10:20;;;;;;;3.77;2.20;;;13.90;71.20;;;;;;5065742;28;20480;-7
2024/01/29 07:12:48;;;;;;;5.00;2.00;;;13.90;71.10;;;;;;5049130;28;20177;-7
2024/01/29 07:15:29;;;;;;;3.57;1.77;;;13.90;71.30;;;;;;5051329;28;20169;-7
2024/01/29 07:18:02;;;;;;;4.33;2.00;;;13.90;71.40;;;;;;5068190;28;20216;-7
2024/01/29 07:20:45;;;;;;;4.23;1.90;;;13.90;71.40;;;;;;5069986;28;20270;-7
2024/01/29 07:23:42;;;;;;;4.00;2.00;;;13.90;71.40;;;;;;5068582;28;20173;-7
2024/01/29 07:29:45;;;;;;;5.93;1.97;;;13.90;71.60;;;;;;5047420;28;20333;-6
2024/01/29 07:32:33;;;;;;;6.63;2.20;;;13.90;71.80;;;;;;5068926;28;20828;-8
2024/01/29 07:35:02;;;;;;;3.03;1.83;;;13.90;71.90;;;;;;5068315;28;20173;-8
2024/01/29 07:37:28;;;;;;;4.80;1.97;;;13.90;71.90;;;;;;5049010;28;20347;-7
2024/01/29 07:39:54;;;;;;;7.27;2.40;;;13.90;72.00;;;;;;5047219;28;20200;-7
2024/01/29 07:42:22;;;;;;;3.90;2.10;;;14.00;72.10;;;;;;5066482;28;20174;-7
2024/01/29 07:44:49;;;;;;;4.63;2.03;;;14.00;72.10;;;;;;5048798;28;20461;-6
2024/01/29 07:47:18;;;;;;;4.80;2.20;;;14.00;72.00;;;;;;5046257;28;20165;-7
2024/01/29 07:49:44;;;;;;;4.47;2.03;;;14.00;71.90;;;;;;5046845;28;20186;-7
2024/01/29 07:52:15;;;;;;;3.03;2.20;;;14.00;71.80;;;;;;5048064;28;20182;-7
2024/01/29 07:55:03;;;;;;;3.93;2.20;;;14.00;71.90;;;;;;5067137;28;20273;-7
2024/01/29 07:57:59;;;;;;;3.87;2.37;;;14.00;71.90;;;;;;5049632;28;20558;-6
2024/01/29 08:00:31;;;;;;;7.87;2.40;;;14.10;71.80;;;;;;5065730;28;20239;-7
2024/01/29 08:02:57;;;;;;;5.97;2.20;;;14.10;71.70;;;;;;5040846;28;20634;-6
2024/01/29 08:05:40;;;;;;;3.10;2.17;;;14.10;71.60;;;;;;5064836;28;20166;-7
2024/01/29 08:08:11;;;;;;;2.73;2.20;;;14.10;71.60;;;;;;5047323;28;20210;-7
2024/01/29 08:10:39;;;;;;;4.77;2.50;;;14.10;71.40;;;;;;5067241;28;20178;-7
2024/01/29 08:13:11;;;;;;;4.37;2.17;;;14.10;71.30;;;;;;5049135;28;20307;-7
2024/01/29 08:15:39;;;;;;;4.20;2.60;;;14.20;71.30;;;;;;5064027;28;20252;-7
2024/01/29 08:18:17;;;;;;;4.23;2.10;;;14.20;71.20;;;;;;5048714;28;20458;-10
2024/01/29 08:20:46;;;;;;;4.40;2.40;;;14.20;71.00;;;;;;5047835;28;20182;-7
2024/01/29 08:23:12;;;;;;;4.60;2.40;;;14.20;70.70;;;;;;5049622;28;20172;-6
2024/01/29 08:25:38;;;;;;;6.23;2.53;;;14.30;70.50;;;;;;5067496;28;20263;-7
2024/01/29 08:28:04;;;;;;;3.73;2.40;;;14.30;70.20;;;;;;5064473;28;20185;-8
2024/01/29 08:33:35;;;;;;;5.73;2.63;;;14.60;69.20;;;;;;5055273;28;20214;-7
2024/01/29 08:36:03;;;;;;;8.10;2.40;;;15.00;67.50;;;;;;5049328;28;20183;-7
2024/01/29 08:38:29;;;;;;;3.83;2.50;;;15.40;65.20;;;;;;5047754;28;20225;-7
2024/01/29 08:40:55;;;;;;;4.43;2.67;;;15.90;62.70;;;;;;5064408;28;20530;-7
2024/01/29 08:43:55;;;;;;;3.60;2.27;;;16.10;61.00;;;;;;5046794;28;20429;-6
2024/01/29 08:46:26;;;;;;;4.13;2.40;;;16.10;60.30;;;;;;5068216;28;20662;-7
2024/01/29 08:49:04;;;;;;;3.83;2.40;;;16.30;59.90;;;;;;5069364;28;20556;-7
2024/01/29 08:54:30;;;;;;;3.43;2.30;;;16.90;58.50;;;;;;5006282;28;20189;-8
2024/01/29 08:56:56;;;;;;;4.50;2.53;;;17.20;57.60;;;;;;5028613;28;20189;-7
2024/01/29 08:59:22;;;;;;;5.03;2.10;;;17.30;57.10;;;;;;5010835;28;20282;-7
2024/01/29 09:02:03;;;;;;;2.83;2.30;;;17.50;56.70;;;;;;5004876;28;20499;-9
2024/01/29 09:04:46;;;;;;;3.37;2.30;;;17.60;56.20;;;;;;5026613;28;20180;-7
2024/01/29 09:07:17;;;;;;;3.33;2.40;;;17.60;55.90;;;;;;5026498;28;20533;-10
2024/01/29 09:09:47;;;;;;;2.70;2.30;;;17.70;55.60;;;;;;5026231;28;20207;-6
2024/01/29 09:12:12;;;;;;;3.43;2.53;;;17.50;55.80;;;;;;5027411;28;20435;-7
2024/01/29 09:14:52;;;;;;;3.97;2.40;;;17.50;55.80;;;;;;5028298;28;20173;-9
2024/01/29 09:17:21;;;;;;;3.47;2.50;;;17.50;55.60;;;;;;5030097;28;20238;-8
2024/01/29 09:19:47;;;;;;;4.63;2.20;;;17.50;55.60;;;;;;5014538;28;20243;-8
2024/01/29 09:22:21;;;;;;;3.63;2.47;;;17.50;55.70;;;;;;5043789;28;20555;-7
2024/01/29 09:24:47;;;;;;;3.73;2.60;;;17.40;55.60;;;;;;5068682;28;20198;-8
2024/01/29 09:27:21;;;;;;;3.10;2.50;;;17.30;55.80;;;;;;5068013;28;20175;-7
2024/01/29 09:29:53;;;;;;;3.53;2.77;;;17.10;56.10;;;;;;5066773;28;20225;-7
2024/01/29 09:32:22;;;;;;;3.43;2.73;;;16.90;56.30;;;;;;5067486;28;20461;-7
2024/01/29 09:34:53;;;;;;;3.30;2.40;;;16.60;56.70;;;;;;5067804;28;20221;-7
2024/01/29 09:37:22;;;;;;;4.07;2.60;;;16.50;57.10;;;;;;5050436;28;20237;-9
2024/01/29 09:40:08;;;;;;;3.87;2.47;;;16.60;57.10;;;;;;5050954;28;20268;-7
2024/01/29 09:42:52;;;;;;;3.20;2.17;;;16.70;57.00;;;;;;5068901;28;20517;-9
2024/01/29 09:45:53;;;;;;;2.60;2.23;;;16.70;56.70;;;;;;5051649;28;20171;-8
2024/01/29 09:48:25;;;;;;;2.60;2.23;;;16.70;56.70;;;;;;5064377;28;20179;-7
2024/01/29 09:50:55;;;;;;;3.30;2.57;;;16.70;56.80;;;;;;5069272;28;20167;-20
2024/01/29 09:53:22;;;;;;;3.17;2.50;;;16.70;57.00;;;;;;5050088;28;20171;-6
2024/01/29 09:55:54;;;;;;;3.57;2.63;;;16.60;57.10;;;;;;5066691;28;20176;-9
2024/01/29 09:58:20;;;;;;;2.53;2.20;;;16.50;57.30;;;;;;5070515;28;20289;-6
2024/01/29 10:00:45;;;;;;;6.23;2.60;;;16.40;57.50;;;;;;5059911;28;20301;-9
2024/01/29 10:06:22;;;;;;;2.60;2.40;;;16.30;57.90;;;;;;5065993;28;20283;-7
2024/01/29 10:08:48;;;;;;;3.50;2.30;;;16.30;58.00;;;;;;5046198;28;20225;-7
2024/01/29 10:11:20;;;;;;;2.77;2.23;;;16.30;58.20;;;;;;5065689;28;20196;-7
2024/01/29 10:13:57;;;;;;;2.70;2.23;;;16.20;58.30;;;;;;5067176;28;20469;-9
2024/01/29 10:16:38;;;;;;;2.60;2.23;;;16.20;58.60;;;;;;5048475;28;20183;-7
2024/01/29 10:19:04;;;;;;;3.23;2.20;;;16.10;58.70;;;;;;5049206;28;20272;-7
2024/01/29 10:21:43;;;;;;;2.93;2.43;;;16.10;58.90;;;;;;5049132;28;20167;-7
2024/01/29 10:27:21;;;;;;;3.50;2.37;;;16.00;59.30;;;;;;5068694;28;20245;-7
2024/01/29 10:29:48;;;;;;;3.57;2.50;;;16.00;59.40;;;;;;5067012;28;20244;-7
2024/01/29 10:32:35;;;;;;;3.63;2.37;;;16.00;59.50;;;;;;5070337;28;20167;-8
2024/01/29 10:35:04;;;;;;;2.97;2.47;;;16.00;59.50;;;;;;5050305;28;20217;-7
2024/01/29 10:37:36;;;;;;;2.63;2.40;;;16.00;59.50;;;;;;5067289;28;20164;-8
2024/01/29 10:40:09;;;;;;;3.07;2.37;;;16.10;59.40;;;;;;5068970;28;20210;-11
2024/01/29 10:42:45;;;;;;;3.00;2.40;;;16.10;59.50;;;;;;5069258;28;20461;-6
2024/01/29 10:45:14;;;;;;;3.27;2.40;;;16.10;59.50;;;;;;5068596;28;20163;-7
2024/01/29 10:48:05;;;;;;;3.53;2.47;;;16.10;59.50;;;;;;5067729;28;20273;-7
2024/01/29 10:50:31;;;;;;;3.50;2.43;;;16.10;59.50;;;;;;5066854;28;20175;-7
2024/01/29 10:53:07;;;;;;;2.90;2.43;;;16.20;59.50;;;;;;5064996;28;20176;-7
2024/01/29 10:55:37;;;;;;;3.43;2.40;;;16.20;59.50;;;;;;5065985;28;20285;-8
2024/01/29 10:58:22;;;;;;;3.20;2.13;;;16.20;59.50;;;;;;5048567;28;20532;-8
2024/01/29 11:00:58;;;;;;;3.80;2.50;;;16.20;59.60;;;;;;5050807;28;20598;-9
2024/01/29 11:03:34;;;;;;;2.77;2.30;;;16.20;59.60;;;;;;5068829;28;20167;-7
2024/01/29 11:06:38;;;;;;;4.20;2.80;;;16.20;59.60;;;;;;5050068;28;20638;-8
2024/01/29 11:09:12;;;;;;;4.07;2.30;;;16.20;59.70;;;;;;5067029;28;20163;-9
2024/01/29 11:11:40;;;;;;;2.73;2.50;;;16.20;59.80;;;;;;5068555;28;20167;-7
2024/01/29 11:14:11;;;;;;;3.07;2.30;;;16.20;59.90;;;;;;5066473;28;20171;-7
2024/01/29 11:16:44;;;;;;;3.83;2.43;;;16.20;59.90;;;;;;5049046;28;20182;-7
2024/01/29 11:19:11;;;;;;;3.03;2.40;;;16.20;60.50;;;;;;5066901;28;20195;-7
2024/01/29 11:21:58;;;;;;;2.40;2.20;;;16.20;60.00;;;;;;5041536;28;20422;-6
2024/01/29 11:24:31;;;;;;;2.70;2.30;;;16.20;60.00;;;;;;5065188;28;20450;-7
2024/01/29 11:27:10;;;;;;;2.47;2.10;;;16.20;60.10;;;;;;5066903;28;20174;-8
2024/01/29 11:29:42;;;;;;;3.03;2.50;;;16.20;60.10;;;;;;5063742;28;20364;-7
2024/01/29 11:32:12;;;;;;;3.27;2.30;;;16.20;60.20;;;;;;5045172;28;20597;-7
2024/01/29 11:34:41;;;;;;;2.63;2.23;;;16.20;60.30;;;;;;5046012;28;20273;-8
2024/01/29 11:37:07;;;;;;;2.87;2.40;;;16.20;60.40;;;;;;5065565;28;20167;-7
2024/01/29 11:39:44;;;;;;;3.27;2.40;;;16.20;60.60;;;;;;5048268;28;20225;-7
2024/01/29 11:42:14;;;;;;;4.03;2.57;;;16.20;60.70;;;;;;5065330;28;20515;-7
2024/01/29 11:44:40;;;;;;;4.90;2.30;;;16.20;60.90;;;;;;5063522;28;20352;-6
2024/01/29 11:47:13;;;;;;;2.50;2.30;;;16.20;61.10;;;;;;5063290;28;20249;-7
2024/01/29 11:49:42;;;;;;;2.90;2.20;;;16.20;61.30;;;;;;5063051;28;20175;-7
2024/01/29 11:52:14;;;;;;;3.17;2.30;;;16.20;61.40;;;;;;5063248;28;20458;-7
2024/01/29 11:54:46;;;;;;;2.50;2.20;;;16.20;61.50;;;;;;5061861;28;20167;-7
2024/01/29 11:57:38;;;;;;;2.93;2.40;;;16.20;61.60;;;;;;5063108;28;20206;-8
2024/01/29 12:00:18;;;;;;;2.33;2.00;;;16.20;61.60;;;;;;5025518;28;20604;-7
2024/01/29 12:02:50;;;;;;;3.53;2.30;;;16.20;61.70;;;;;;5062449;28;20356;-8
2024/01/29 12:05:19;;;;;;;2.30;2.10;;;16.20;61.80;;;;;;5065933;28;20178;-7
2024/01/29 12:07:46;;;;;;;3.10;2.20;;;16.20;61.80;;;;;;5066110;28;20179;-7
2024/01/29 12:10:21;;;;;;;2.73;2.40;;;16.20;62.00;;;;;;5047289;28;20233;-7
2024/01/29 12:12:47;;;;;;;2.93;2.30;;;16.20;62.10;;;;;;5047341;28;20175;-7
2024/01/29 12:15:35;;;;;;;2.47;2.10;;;16.20;62.20;;;;;;5047653;28;20180;-9
2024/01/29 12:18:09;;;;;;;2.43;2.10;;;16.10;62.50;;;;;;4963815;28;20631;-7
2024/01/29 12:21:03;;;;;;;4.57;2.40;;;16.10;62.50;;;;;;5058990;28;20544;-7
2024/01/29 12:23:59;;;;;;;4.00;2.80;;;16.10;62.60;;;;;;5055887;28;20225;-7
2024/01/29 12:26:28;;;;;;;3.73;2.20;;;16.10;62.70;;;;;;5028252;28;20194;-7
2024/01/29 12:29:00;;;;;;;3.47;2.20;;;16.10;62.90;;;;;;5068008;28;20176;-9
2024/01/29 12:31:37;;;;;;;5.83;2.57;;;16.10;63.10;;;;;;5067840;28;20171;-7
2024/01/29 12:34:03;;;;;;;2.57;2.37;;;16.10;63.20;;;;;;5070536;28;20587;-9
2024/01/29 12:36:31;;;;;;;3.50;2.20;;;16.10;63.30;;;;;;5070483;28;20164;-7
2024/01/29 12:39:11;;;;;;;4.00;2.30;;;16.10;63.50;;;;;;5068981;28;20206;-8
2024/01/29 12:41:45;;;;;;;5.13;2.67;;;16.10;63.60;;;;;;5049991;28;20270;-7
2024/01/29 12:44:20;;;;;;;2.93;2.53;;;16.10;63.80;;;;;;5068330;28;20174;-7
2024/01/29 12:46:55;;;;;;;3.63;2.50;;;16.10;64.00;;;;;;5034389;28;20444;-7
2024/01/29 12:49:21;;;;;;;2.60;2.03;;;16.10;64.10;;;;;;5067212;28;20170;-7
2024/01/29 12:51:50;;;;;;;2.93;2.13;;;16.10;64.20;;;;;;5066536;28;20164;-7
2024/01/29 12:54:19;;;;;;;2.77;2.23;;;16.10;64.20;;;;;;5067918;28;20545;-7
2024/01/29 12:56:56;;;;;;;2.30;2.10;;;16.10;64.40;;;;;;5067223;28;20199;-7
2024/01/29 12:59:22;;;;;;;2.60;2.30;;;16.10;64.50;;;;;;5049703;28;20234;-7
2024/01/29 13:01:48;;;;;;;2.97;2.63;;;16.10;64.60;;;;;;5050194;28;20211;-7
2024/01/29 13:04:13;;;;;;;3.23;2.20;;;16.10;64.60;;;;;;5067760;28;20176;-7
2024/01/29 13:06:51;;;;;;;3.07;2.27;;;16.10;64.80;;;;;;5067812;28;20446;-5
2024/01/29 13:09:21;;;;;;;3.00;2.20;;;16.00;64.70;;;;;;5066548;28;20731;-7
2024/01/29 13:11:54;;;;;;;2.63;2.30;;;16.00;64.90;;;;;;5065764;28;20314;-7
2024/01/29 13:14:22;;;;;;;3.87;2.00;;;16.10;65.10;;;;;;5050077;28;20553;-7
2024/01/29 13:16:48;;;;;;;2.93;2.20;;;16.00;65.10;;;;;;5068654;28;20228;-7
2024/01/29 13:19:14;;;;;;;3.10;2.33;;;16.10;65.50;;;;;;5068724;28;20199;-6
2024/01/29 13:21:42;;;;;;;4.33;2.63;;;16.10;65.70;;;;;;5047329;28;20168;-6
2024/01/29 13:24:08;;;;;;;4.63;2.90;;;16.10;66.70;;;;;;5070263;28;20168;-8
2024/01/29 13:26:40;;;;;;;8.83;2.87;;;16.20;66.70;;;;;;5068860;28;20184;-7
2024/01/29 13:29:15;;;;;;;4.83;2.60;;;16.30;67.10;;;;;;5068436;28;20444;-7
2024/01/29 13:31:43;;;;;;;7.10;2.70;;;16.40;67.60;;;;;;5067630;28;20321;-6
2024/01/29 13:34:19;;;;;;;8.87;2.80;;;16.50;67.90;;;;;;5067557;28;20168;-6
2024/01/29 13:36:51;;;;;;;5.63;3.13;;;16.50;68.30;;;;;;5048044;28;20427;-6
2024/01/29 13:39:20;;;;;;;44.23;41.17;;;16.60;68.50;;;;;;5066441;28;20532;-6
2024/01/29 13:41:49;;;;;;;4.20;2.30;;;16.60;68.50;;;;;;5067252;28;20549;-7
2024/01/29 13:44:14;;;;;;;3.73;2.70;;;16.70;68.60;;;;;;5067006;28;20195;-6
2024/01/29 13:46:46;;;;;;;8.33;2.53;;;16.70;68.60;;;;;;5047617;28;20435;-6
2024/01/29 13:49:15;;;;;;;5.13;2.50;;;16.70;68.80;;;;;;5049203;28;20186;-7
2024/01/29 13:51:46;;;;;;;7.73;2.77;;;16.70;70.00;;;;;;5067318;28;20477;-6
2024/01/29 13:54:16;;;;;;;18.70;3.00;;;16.80;71.60;;;;;;5067289;28;20630;-6
2024/01/29 13:56:42;;;;;;;13.97;2.77;;;16.80;72.80;;;;;;5067457;28;20196;-8
2024/01/29 13:59:08;;;;;;;6.30;2.80;;;16.80;73.10;;;;;;5068361;28;20269;-7
2024/01/29 14:01:37;;;;;;;8.83;2.60;;;16.90;73.70;;;;;;5067941;28;20183;-7
2024/01/29 14:04:06;;;;;;;6.67;2.83;;;16.90;72.80;;;;;;5069190;28;20210;-7
2024/01/29 14:06:31;;;;;;;5.37;2.80;;;16.90;71.90;;;;;;5067808;28;20185;-8
2024/01/29 14:09:04;;;;;;;9.63;2.47;;;17.00;71.30;;;;;;5047444;28;20183;-10
2024/01/29 14:11:33;;;;;;;4.03;2.43;;;17.00;71.00;;;;;;5064547;28;20178;-7
2024/01/29 14:14:27;;;;;;;5.13;3.03;;;17.00;72.70;;;;;;5048361;28;20176;-7
2024/01/29 14:16:57;;;;;;;244.47;228.57;;;17.10;72.10;;;;;;5049572;28;20537;-7
2024/01/29 14:19:31;;;;;;;7.43;2.97;;;17.00;71.80;;;;;;5066443;28;20211;-7
2024/01/29 14:22:02;;;;;;;5.73;2.83;;;17.00;72.20;;;;;;5067750;28;20164;-7
2024/01/29 14:24:32;;;;;;;11.90;2.90;;;17.10;74.60;;;;;;5066727;28;20248;-7
2024/01/29 14:27:00;;;;;;;6.30;2.43;;;17.10;74.10;;;;;;5047919;28;20212;-7
2024/01/29 14:29:26;;;;;;;5.57;2.70;;;17.10;73.10;;;;;;5067304;28;20171;-7
2024/01/29 14:31:56;;;;;;;6.63;3.07;;;17.10;72.70;;;;;;5067149;28;20237;-7
2024/01/29 14:34:31;;;;;;;13.73;2.87;;;17.10;75.50;;;;;;5065989;28;20187;-8
2024/01/29 14:37:08;;;;;;;13.50;2.97;;;17.20;76.40;;;;;;5067625;28;20167;-8
2024/01/29 14:39:46;;;;;;;23.57;4.97;;;17.50;77.40;;;;;;5049338;28;20207;-6
2024/01/29 14:42:14;;;;;;;13.13;2.90;;;17.90;79.40;;;;;;5065885;28;20713;-7
2024/01/29 14:44:40;;;;;;;8.53;2.73;;;18.10;79.00;;;;;;5065351;28;20650;-6
2024/01/29 14:47:14;;;;;;;9.90;3.10;;;18.20;78.60;;;;;;5065203;28;20170;-7
2024/01/29 14:49:47;;;;;;;9.17;2.67;;;18.30;79.20;;;;;;5062685;28;20626;-7
2024/01/29 14:52:15;;;;;;;7.47;2.53;;;18.40;79.60;;;;;;5065242;28;20446;-7
2024/01/29 14:54:47;;;;;;;15.47;3.17;;;18.50;80.20;;;;;;5063059;28;20229;-7
2024/01/29 14:57:21;;;;;;;8.67;2.70;;;18.60;79.60;;;;;;5065038;28;20198;-7
2024/01/29 14:59:59;;;;;;;9.87;3.10;;;18.70;79.00;;;;;;5063993;28;20556;-7
2024/01/29 15:02:34;;;;;;;8.13;2.60;;;18.70;77.80;;;;;;5047053;28;20178;-9
2024/01/29 15:05:10;;;;;;;10.60;2.77;;;18.80;76.30;;;;;;5063473;28;20168;-7
2024/01/29 15:07:49;;;;;;;14.57;3.40;;;18.80;75.90;;;;;;5062496;28;20274;-7
2024/01/29 15:10:17;;;;;;;12.77;2.63;;;18.90;75.70;;;;;;5070398;28;20260;-7
2024/01/29 15:12:51;;;;;;;8.63;3.13;;;19.00;75.30;;;;;;5074826;28;20268;-6
2024/01/29 15:15:17;;;;;;;11.07;2.90;;;19.00;75.80;;;;;;5070357;28;20274;-7
2024/01/29 15:17:43;;;;;;;10.23;2.70;;;19.10;75.40;;;;;;5062361;28;20190;-8
2024/01/29 15:20:09;;;;;;;11.00;2.87;;;19.10;75.40;;;;;;5062582;28;20268;-7
2024/01/29 15:22:38;;;;;;;10.47;2.70;;;19.20;74.30;;;;;;5061694;28;20172;-7